To NAV CANADA Home Page Login to a new session Search on AWWS site Disclaimer Vers la page française équivalente Tips FAQ What's new on the site To the Forecasts and Observations / NOTAM section To "File a Flight Plan" website Publications and other links Update of the User's profile FIC Telephone Numbers My Weather Data Folder Route Weather Data Regional Weather Data Local Weather Data To the Forecasts and Observations / NOTAM section
Request Generated 10/21/2018 at 05:49:49 UTC . Weather information available at that time is displayed.

METAR/TAF

KELOWNA/BC    (show WxCam)

METAR CYLW 210500Z AUTO 33004KT 310V050 9SM CLR 02/02 A3016 RMK SLP228=
METAR CYLW 210400Z AUTO 02003KT 9SM CLR 04/03 A3016 RMK SLP227=
METAR CYLW 210300Z AUTO 04003KT 9SM CLR 05/04 A3015 RMK SLP228=

TAF CYLW 210038Z 2101/2113 35005KT P6SM SCT240
RMK FCST BASED ON AUTO OBS. NXT FCST BY 210700Z=
Your time UTC time
Weather data provided by Environment Canada and NAV CANADA